Time;durP1;ratioP1;P1;durP2;ratioP2;P2;SDS_P1;SDS_P2;PMS_P1;PMS_P2;Temp;Humidity;BMP_temperature;BMP_pressure;BME280_temperature;BME280_humidity;BME280_pressure;Samples;Min_cycle;Max_cycle;Signal;HPM_P1;HPM_P2
2021/11/05 00:00:02;;;;;;;;;;;18.00;60.00;;;;;;5026140;28;20194;-65
2021/11/05 00:02:29;;;;;;;;;;;18.00;60.00;;;;;;5032974;28;19917;-65
2021/11/05 00:04:57;;;;;;;;;;;18.00;59.90;;;;;;5036511;28;20295;-65
2021/11/05 00:07:23;;;;;;;;;;;18.00;59.90;;;;;;5034473;28;20270;-66
2021/11/05 00:09:48;;;;;;;;;;;18.00;59.90;;;;;;5047160;28;20053;-66
2021/11/05 00:12:14;;;;;;;;;;;18.00;59.90;;;;;;5041104;28;19912;-65
2021/11/05 00:14:41;;;;;;;;;;;18.00;59.90;;;;;;5038550;28;19913;-66
2021/11/05 00:17:06;;;;;;;;;;;18.00;59.90;;;;;;5029022;28;19920;-66
2021/11/05 00:19:32;;;;;;;;;;;18.00;59.80;;;;;;5044394;28;19917;-65
2021/11/05 00:21:57;;;;;;;;;;;18.00;59.80;;;;;;5031120;28;19944;-66
2021/11/05 00:24:23;;;;;;;;;;;18.00;59.80;;;;;;5039559;28;19921;-65
2021/11/05 00:26:48;;;;;;;;;;;18.00;59.80;;;;;;5036934;28;20306;-65
2021/11/05 00:29:14;;;;;;;;;;;18.00;59.80;;;;;;5039255;28;19917;-65
2021/11/05 00:31:39;;;;;;;;;;;18.00;59.70;;;;;;5030028;28;20363;-65
2021/11/05 00:34:04;;;;;;;;;;;17.90;59.80;;;;;;5040457;28;19979;-64
2021/11/05 00:36:30;;;;;;;;;;;17.90;59.90;;;;;;5037083;28;19923;-63
2021/11/05 00:38:55;;;;;;;;;;;17.80;59.90;;;;;;5036453;28;19921;-66
2021/11/05 00:41:21;;;;;;;;;;;17.90;60.00;;;;;;5035899;28;20383;-64
2021/11/05 00:43:46;;;;;;;;;;;17.80;60.10;;;;;;5048995;28;19974;-64
2021/11/05 00:46:12;;;;;;;;;;;17.80;60.20;;;;;;5043580;28;19979;-65
2021/11/05 00:48:37;;;;;;;;;;;17.80;60.20;;;;;;5023678;28;19928;-65
2021/11/05 00:51:03;;;;;;;;;;;17.80;60.30;;;;;;5033823;28;19962;-65
2021/11/05 00:53:28;;;;;;;;;;;17.80;60.30;;;;;;5040765;28;20141;-65
2021/11/05 00:55:53;;;;;;;;;;;17.80;60.40;;;;;;5026229;28;20383;-64
2021/11/05 00:58:19;;;;;;;;;;;17.70;60.40;;;;;;5037408;28;19925;-65
2021/11/05 01:00:44;;;;;;;;;;;17.80;60.40;;;;;;5028614;28;19996;-66
2021/11/05 01:03:10;;;;;;;;;;;17.70;60.40;;;;;;5039206;28;19912;-65
2021/11/05 01:05:36;;;;;;;;;;;17.80;60.40;;;;;;5033254;28;19932;-65
2021/11/05 01:08:02;;;;;;;;;;;17.70;60.40;;;;;;5043642;28;20003;-66
2021/11/05 01:10:27;;;;;;;;;;;17.70;60.40;;;;;;5044500;28;19913;-65
2021/11/05 01:12:53;;;;;;;;;;;17.70;60.40;;;;;;5022105;28;19917;-64
2021/11/05 01:15:19;;;;;;;;;;;17.70;60.40;;;;;;5035334;28;19920;-65
2021/11/05 01:17:44;;;;;;;;;;;17.80;60.40;;;;;;5042113;28;19913;-65
2021/11/05 01:20:10;;;;;;;;;;;17.70;60.30;;;;;;5028279;28;19935;-66
2021/11/05 01:22:36;;;;;;;;;;;17.70;60.40;;;;;;5046131;28;20364;-65
2021/11/05 01:25:01;;;;;;;;;;;17.70;60.30;;;;;;5032639;28;19992;-65
2021/11/05 01:27:27;;;;;;;;;;;17.70;60.40;;;;;;5035118;28;19936;-63
2021/11/05 01:29:56;;;;;;;;;;;17.70;60.30;;;;;;5041195;28;19917;-65
2021/11/05 01:32:22;;;;;;;;;;;17.70;60.30;;;;;;5033017;28;19913;-64
2021/11/05 01:34:48;;;;;;;;;;;17.70;60.40;;;;;;5042846;28;19913;-65
2021/11/05 01:37:13;;;;;;;;;;;17.70;60.40;;;;;;5046630;28;19917;-65
2021/11/05 01:39:38;;;;;;;;;;;17.70;60.40;;;;;;5045772;28;19916;-63
2021/11/05 01:42:04;;;;;;;;;;;17.70;60.50;;;;;;5038633;28;19920;-66
2021/11/05 01:44:29;;;;;;;;;;;17.60;60.40;;;;;;5031787;28;19921;-63
2021/11/05 01:46:55;;;;;;;;;;;17.70;60.50;;;;;;5038197;28;19935;-67
2021/11/05 01:49:21;;;;;;;;;;;17.70;60.40;;;;;;5026436;28;19928;-64
2021/11/05 01:51:48;;;;;;;;;;;17.70;60.30;;;;;;5025859;28;19913;-66
2021/11/05 01:54:13;;;;;;;;;;;17.70;60.30;;;;;;5034572;28;19913;-65
2021/11/05 01:56:39;;;;;;;;;;;17.80;60.20;;;;;;5032460;28;20453;-65
2021/11/05 01:59:04;;;;;;;;;;;17.80;60.00;;;;;;5036887;28;19928;-64
2021/11/05 02:01:30;;;;;;;;;;;17.90;59.90;;;;;;5039258;28;19956;-66
2021/11/05 02:03:55;;;;;;;;;;;18.00;59.90;;;;;;5034564;28;20388;-65
2021/11/05 02:06:21;;;;;;;;;;;18.00;59.70;;;;;;5008244;28;20351;-65
2021/11/05 02:08:47;;;;;;;;;;;18.00;59.60;;;;;;5027894;28;20414;-66
2021/11/05 02:11:12;;;;;;;;;;;18.00;59.60;;;;;;5014111;28;19967;-66
2021/11/05 02:13:38;;;;;;;;;;;18.10;59.60;;;;;;5035109;28;19921;-65
2021/11/05 02:16:03;;;;;;;;;;;18.10;59.60;;;;;;5008394;28;20315;-64
2021/11/05 02:18:29;;;;;;;;;;;18.10;59.50;;;;;;5026085;28;20341;-65
2021/11/05 02:20:55;;;;;;;;;;;18.20;59.50;;;;;;5035300;28;20371;-64
2021/11/05 02:23:21;;;;;;;;;;;18.20;59.50;;;;;;5041080;28;19963;-64
2021/11/05 02:25:47;;;;;;;;;;;18.20;59.40;;;;;;5033696;28;20268;-64
2021/11/05 02:28:12;;;;;;;;;;;18.20;59.30;;;;;;5036843;28;19913;-64
2021/11/05 02:30:38;;;;;;;;;;;18.20;59.30;;;;;;5041886;28;19925;-65
2021/11/05 02:33:03;;;;;;;;;;;18.20;59.30;;;;;;5028024;28;19913;-66
2021/11/05 02:35:29;;;;;;;;;;;18.30;59.40;;;;;;5036005;28;20296;-65
2021/11/05 02:37:54;;;;;;;;;;;18.30;59.30;;;;;;5029666;28;19936;-65
2021/11/05 02:40:20;;;;;;;;;;;18.30;59.30;;;;;;5035469;28;19913;-65
2021/11/05 02:42:45;;;;;;;;;;;18.30;59.30;;;;;;5038759;28;19963;-65
2021/11/05 02:45:11;;;;;;;;;;;18.30;59.20;;;;;;5023808;28;20300;-64
2021/11/05 02:47:36;;;;;;;;;;;18.30;59.10;;;;;;5010958;28;19913;-65
2021/11/05 02:50:06;;;;;;;;;;;18.30;59.20;;;;;;5025402;28;19913;-66
2021/11/05 02:52:31;;;;;;;;;;;18.30;59.10;;;;;;5029333;28;19913;-62
2021/11/05 02:54:57;;;;;;;;;;;18.30;59.20;;;;;;5033342;28;20340;-63
2021/11/05 02:57:22;;;;;;;;;;;18.30;59.20;;;;;;5039545;28;19921;-64
2021/11/05 02:59:48;;;;;;;;;;;18.30;59.20;;;;;;5044004;28;19917;-65
2021/11/05 03:02:13;;;;;;;;;;;18.20;59.20;;;;;;5029164;28;20191;-65
2021/11/05 03:04:39;;;;;;;;;;;18.20;59.20;;;;;;5039549;28;20317;-65
2021/11/05 03:07:06;;;;;;;;;;;18.20;59.10;;;;;;5043859;28;19913;-65
2021/11/05 03:09:32;;;;;;;;;;;18.20;59.10;;;;;;5019006;28;19913;-65
2021/11/05 03:11:58;;;;;;;;;;;18.20;59.10;;;;;;5031273;28;20399;-65
2021/11/05 03:14:23;;;;;;;;;;;18.20;59.10;;;;;;5035858;28;19943;-65
2021/11/05 03:16:49;;;;;;;;;;;18.20;59.10;;;;;;5028815;28;20286;-65
2021/11/05 03:19:14;;;;;;;;;;;18.20;59.10;;;;;;5025199;28;19920;-65
2021/11/05 03:21:40;;;;;;;;;;;18.20;59.00;;;;;;5037493;28;19912;-65
2021/11/05 03:24:05;;;;;;;;;;;18.20;58.90;;;;;;5037817;28;19925;-65
2021/11/05 03:26:31;;;;;;;;;;;18.20;59.00;;;;;;5038753;28;20187;-65
2021/11/05 03:28:56;;;;;;;;;;;18.20;58.90;;;;;;5035139;28;19921;-65
2021/11/05 03:31:21;;;;;;;;;;;18.20;58.90;;;;;;5041315;28;19913;-65
2021/11/05 03:33:47;;;;;;;;;;;18.20;58.90;;;;;;5047589;28;20341;-66
2021/11/05 03:36:13;;;;;;;;;;;18.20;58.80;;;;;;5040984;28;19917;-64
2021/11/05 03:38:38;;;;;;;;;;;18.20;58.90;;;;;;5024527;28;20008;-65
2021/11/05 03:41:03;;;;;;;;;;;18.10;58.90;;;;;;5024279;28;19920;-65
2021/11/05 03:43:29;;;;;;;;;;;18.10;58.80;;;;;;5027602;28;19917;-64
2021/11/05 03:45:55;;;;;;;;;;;18.20;58.90;;;;;;5043796;28;20180;-64
2021/11/05 03:48:20;;;;;;;;;;;18.10;58.80;;;;;;5025952;28;19967;-64
2021/11/05 03:50:46;;;;;;;;;;;18.10;58.80;;;;;;5039538;28;19913;-64
2021/11/05 03:53:11;;;;;;;;;;;18.10;58.70;;;;;;5043655;28;20129;-65
2021/11/05 03:55:37;;;;;;;;;;;18.10;58.80;;;;;;5018523;28;19914;-65
2021/11/05 03:58:02;;;;;;;;;;;18.10;58.90;;;;;;5034417;28;20342;-65
2021/11/05 04:00:28;;;;;;;;;;;18.10;58.80;;;;;;5026867;28;19916;-65
2021/11/05 04:02:53;;;;;;;;;;;18.00;58.80;;;;;;5038423;28;19990;-64
2021/11/05 04:05:19;;;;;;;;;;;18.00;58.90;;;;;;5026844;28;20410;-65
2021/11/05 04:07:44;;;;;;;;;;;18.00;58.90;;;;;;5031392;28;20369;-65
2021/11/05 04:10:09;;;;;;;;;;;18.00;58.90;;;;;;5041935;28;20167;-64
2021/11/05 04:12:35;;;;;;;;;;;18.00;59.00;;;;;;5024285;28;19920;-62
2021/11/05 04:15:00;;;;;;;;;;;18.00;59.00;;;;;;5035034;28;20297;-66
2021/11/05 04:17:26;;;;;;;;;;;18.00;59.00;;;;;;5024825;28;19913;-64
2021/11/05 04:19:51;;;;;;;;;;;17.90;59.10;;;;;;5024125;28;19983;-64
2021/11/05 04:22:17;;;;;;;;;;;17.90;59.10;;;;;;5023912;28;19919;-65
2021/11/05 04:24:42;;;;;;;;;;;17.90;59.20;;;;;;5027805;28;19917;-65
2021/11/05 04:27:08;;;;;;;;;;;17.90;59.30;;;;;;5035075;28;20210;-64
2021/11/05 04:29:35;;;;;;;;;;;17.90;59.20;;;;;;5024685;28;19913;-65
2021/11/05 04:32:00;;;;;;;;;;;17.80;59.30;;;;;;5032227;28;20130;-65
2021/11/05 04:34:26;;;;;;;;;;;17.80;59.30;;;;;;5043177;28;19917;-65
2021/11/05 04:36:52;;;;;;;;;;;17.80;59.50;;;;;;5034935;28;19960;-65
2021/11/05 04:39:17;;;;;;;;;;;17.80;59.50;;;;;;5044213;28;19919;-64
2021/11/05 04:41:45;;;;;;;;;;;17.80;59.60;;;;;;5027414;28;19975;-64
2021/11/05 04:44:11;;;;;;;;;;;17.70;59.70;;;;;;5027443;28;19917;-65
2021/11/05 04:46:36;;;;;;;;;;;17.70;59.90;;;;;;5031986;28;20449;-64
2021/11/05 04:49:02;;;;;;;;;;;17.70;59.80;;;;;;5031376;28;19920;-64
2021/11/05 04:51:27;;;;;;;;;;;17.70;60.00;;;;;;5037111;28;20294;-65
2021/11/05 04:53:53;;;;;;;;;;;17.60;60.00;;;;;;5036123;28;19917;-65
2021/11/05 04:56:18;;;;;;;;;;;17.70;60.10;;;;;;5027874;28;19963;-65
2021/11/05 04:58:45;;;;;;;;;;;17.70;60.10;;;;;;5021984;28;20397;-66
2021/11/05 05:01:10;;;;;;;;;;;17.70;60.10;;;;;;5041775;28;19912;-66
2021/11/05 05:03:36;;;;;;;;;;;17.80;60.00;;;;;;5050526;28;20363;-66
2021/11/05 05:06:01;;;;;;;;;;;17.70;59.90;;;;;;5039080;28;19944;-65
2021/11/05 05:08:27;;;;;;;;;;;17.80;59.90;;;;;;5013192;28;19920;-65
2021/11/05 05:10:52;;;;;;;;;;;17.80;59.90;;;;;;5030198;28;20379;-66
2021/11/05 05:13:17;;;;;;;;;;;17.80;59.80;;;;;;5009209;28;19917;-66
2021/11/05 05:15:43;;;;;;;;;;;17.90;59.70;;;;;;5035930;28;19913;-65
2021/11/05 05:18:09;;;;;;;;;;;17.90;59.60;;;;;;5034528;28;20213;-66
2021/11/05 05:20:35;;;;;;;;;;;17.90;59.60;;;;;;5030326;28;20017;-65
2021/11/05 05:23:00;;;;;;;;;;;18.00;59.50;;;;;;5026447;28;20407;-66
2021/11/05 05:25:26;;;;;;;;;;;18.00;59.30;;;;;;5026548;28;19917;-67
2021/11/05 05:27:51;;;;;;;;;;;18.10;59.50;;;;;;5037270;28;20201;-67
2021/11/05 05:30:18;;;;;;;;;;;18.10;59.50;;;;;;5046687;28;19936;-66
2021/11/05 05:32:44;;;;;;;;;;;18.10;59.50;;;;;;5043002;28;19917;-66
2021/11/05 05:35:09;;;;;;;;;;;18.10;59.50;;;;;;5034792;28;19925;-65
2021/11/05 05:37:35;;;;;;;;;;;18.10;59.60;;;;;;5033598;28;19921;-66
2021/11/05 05:40:00;;;;;;;;;;;18.10;59.50;;;;;;5031518;28;19913;-56
2021/11/05 05:42:26;;;;;;;;;;;18.10;59.60;;;;;;5035290;28;19919;-60
2021/11/05 05:44:51;;;;;;;;;;;18.20;59.70;;;;;;5045609;28;19917;-61
2021/11/05 05:47:17;;;;;;;;;;;18.20;59.60;;;;;;5027208;28;19925;-64
2021/11/05 05:49:42;;;;;;;;;;;18.20;59.60;;;;;;5025746;28;19966;-64
2021/11/05 05:52:08;;;;;;;;;;;18.20;59.90;;;;;;5022318;28;20335;-60
2021/11/05 05:54:33;;;;;;;;;;;18.20;60.00;;;;;;5037227;28;19913;-66
2021/11/05 05:56:59;;;;;;;;;;;18.20;60.00;;;;;;5027968;28;19923;-54
2021/11/05 05:59:25;;;;;;;;;;;18.20;60.00;;;;;;5024172;28;20119;-63
2021/11/05 06:01:50;;;;;;;;;;;18.20;59.90;;;;;;5029063;28;19936;-63
2021/11/05 06:04:17;;;;;;;;;;;18.20;59.90;;;;;;5034957;28;19921;-68
2021/11/05 06:06:42;;;;;;;;;;;18.20;59.90;;;;;;5012152;28;19917;-56
2021/11/05 06:09:08;;;;;;;;;;;18.30;59.90;;;;;;5025176;28;19959;-59
2021/11/05 06:11:33;;;;;;;;;;;18.20;59.80;;;;;;5029027;28;19917;-65
2021/11/05 06:13:59;;;;;;;;;;;18.20;59.70;;;;;;5045200;28;19912;-63
2021/11/05 06:16:24;;;;;;;;;;;18.20;59.70;;;;;;5045226;28;19917;-57
2021/11/05 06:18:50;;;;;;;;;;;18.20;59.60;;;;;;5044886;28;19936;-56
2021/11/05 06:21:15;;;;;;;;;;;18.20;59.60;;;;;;5026242;28;20433;-64
2021/11/05 06:23:41;;;;;;;;;;;18.20;59.50;;;;;;5031946;28;20115;-62
2021/11/05 06:26:06;;;;;;;;;;;18.20;59.50;;;;;;5032207;28;20078;-66
2021/11/05 06:28:32;;;;;;;;;;;18.20;59.40;;;;;;5026468;28;19991;-67
2021/11/05 06:30:57;;;;;;;;;;;18.20;59.40;;;;;;5016972;28;19935;-66
2021/11/05 06:33:23;;;;;;;;;;;18.20;59.70;;;;;;5049422;28;19921;-64
2021/11/05 06:35:48;;;;;;;;;;;18.20;60.40;;;;;;5039924;28;20205;-65
2021/11/05 06:38:14;;;;;;;;;;;18.20;60.70;;;;;;5038847;28;19998;-63
2021/11/05 06:40:40;;;;;;;;;;;18.20;60.50;;;;;;5031954;28;20307;-64
2021/11/05 06:43:06;;;;;;;;;;;18.20;60.10;;;;;;5022493;28;19913;-61
2021/11/05 06:45:31;;;;;;;;;;;18.20;59.70;;;;;;5023059;28;19917;-64
2021/11/05 06:47:57;;;;;;;;;;;18.20;59.40;;;;;;5033678;28;19913;-64
2021/11/05 06:50:22;;;;;;;;;;;18.20;59.10;;;;;;5037704;28;20034;-64
2021/11/05 06:52:47;;;;;;;;;;;18.20;58.80;;;;;;5043526;28;20306;-64
2021/11/05 06:55:13;;;;;;;;;;;18.20;59.10;;;;;;5037216;28;20173;-67
2021/11/05 06:57:38;;;;;;;;;;;18.20;58.70;;;;;;5017086;28;19949;-66
2021/11/05 07:00:04;;;;;;;;;;;18.20;58.50;;;;;;5024567;28;20318;-64
2021/11/05 07:02:30;;;;;;;;;;;18.10;58.20;;;;;;5030539;28;19917;-64
2021/11/05 07:04:55;;;;;;;;;;;18.10;58.20;;;;;;5044241;28;20229;-64
2021/11/05 07:07:21;;;;;;;;;;;18.10;58.10;;;;;;5036698;28;19924;-64
2021/11/05 07:09:46;;;;;;;;;;;18.10;58.30;;;;;;5017833;28;19935;-61
2021/11/05 07:12:13;;;;;;;;;;;18.10;58.00;;;;;;5041515;28;19921;-64
2021/11/05 07:14:38;;;;;;;;;;;18.10;57.90;;;;;;5038803;28;20280;-64
2021/11/05 07:17:04;;;;;;;;;;;18.10;58.00;;;;;;5044765;28;19920;-65
2021/11/05 07:19:29;;;;;;;;;;;18.00;58.00;;;;;;5036029;28;19971;-66
2021/11/05 07:22:04;;;;;;;;;;;18.00;57.80;;;;;;5039224;28;19920;-65
2021/11/05 07:24:33;;;;;;;;;;;18.00;57.60;;;;;;5043598;28;19917;-65
2021/11/05 07:26:58;;;;;;;;;;;18.00;57.50;;;;;;5024562;28;20206;-63
2021/11/05 07:29:26;;;;;;;;;;;18.00;57.50;;;;;;5030510;28;19944;-63
2021/11/05 07:31:55;;;;;;;;;;;18.00;57.70;;;;;;5043082;28;19978;-62
2021/11/05 07:34:20;;;;;;;;;;;17.90;57.80;;;;;;5040037;28;19913;-64
2021/11/05 07:36:46;;;;;;;;;;;18.00;57.90;;;;;;5030742;28;19917;-63
2021/11/05 07:39:11;;;;;;;;;;;18.00;57.80;;;;;;5035234;28;19927;-64
2021/11/05 07:41:37;;;;;;;;;;;18.00;57.80;;;;;;5037758;28;19913;-62
2021/11/05 07:44:02;;;;;;;;;;;18.00;57.70;;;;;;5037081;28;19916;-63
2021/11/05 07:46:28;;;;;;;;;;;18.00;58.00;;;;;;5032645;28;20025;-63
2021/11/05 07:48:53;;;;;;;;;;;18.00;58.10;;;;;;5028617;28;19974;-64
2021/11/05 07:51:19;;;;;;;;;;;17.90;58.20;;;;;;5028869;28;19913;-65
2021/11/05 07:53:44;;;;;;;;;;;18.00;58.30;;;;;;5041886;28;20399;-65
2021/11/05 07:56:10;;;;;;;;;;;18.00;58.40;;;;;;5028447;28;19924;-64
2021/11/05 07:58:35;;;;;;;;;;;18.00;58.40;;;;;;5036484;28;19935;-66
2021/11/05 08:01:01;;;;;;;;;;;18.00;58.60;;;;;;5037479;28;19941;-65
2021/11/05 08:03:26;;;;;;;;;;;17.90;58.40;;;;;;5027007;28;19917;-65
2021/11/05 08:05:52;;;;;;;;;;;18.00;58.30;;;;;;5039282;28;19924;-64
2021/11/05 08:08:17;;;;;;;;;;;17.90;58.30;;;;;;5039487;28;20333;-65
2021/11/05 08:10:43;;;;;;;;;;;18.00;58.20;;;;;;5033141;28;19921;-64
2021/11/05 08:13:08;;;;;;;;;;;18.00;58.20;;;;;;5033366;28;19923;-65
2021/11/05 08:15:34;;;;;;;;;;;18.00;58.20;;;;;;5036356;28;19988;-64
2021/11/05 08:17:59;;;;;;;;;;;17.90;58.20;;;;;;5038343;28;20321;-64
2021/11/05 08:20:25;;;;;;;;;;;17.90;58.30;;;;;;5034322;28;19955;-64
2021/11/05 08:22:50;;;;;;;;;;;17.90;58.30;;;;;;5026433;28;20306;-65
2021/11/05 08:25:16;;;;;;;;;;;17.90;58.40;;;;;;5044775;28;19917;-65
2021/11/05 08:27:42;;;;;;;;;;;17.90;58.50;;;;;;5036117;28;20366;-64
2021/11/05 08:30:08;;;;;;;;;;;17.90;58.50;;;;;;5028217;28;19914;-64
2021/11/05 08:32:34;;;;;;;;;;;17.90;58.50;;;;;;5041092;28;19919;-63
2021/11/05 08:34:59;;;;;;;;;;;17.80;58.50;;;;;;5039217;28;19917;-64
2021/11/05 08:37:25;;;;;;;;;;;17.90;58.60;;;;;;5046893;28;19920;-64
2021/11/05 08:39:51;;;;;;;;;;;17.80;58.50;;;;;;5043164;28;19913;-65
2021/11/05 08:42:16;;;;;;;;;;;17.80;58.60;;;;;;5031454;28;20184;-64
2021/11/05 08:44:42;;;;;;;;;;;17.80;58.60;;;;;;5036727;28;19932;-66
2021/11/05 08:47:07;;;;;;;;;;;17.80;58.70;;;;;;5032693;28;19916;-64
2021/11/05 08:49:32;;;;;;;;;;;17.80;58.80;;;;;;5032436;28;20478;-64
2021/11/05 08:51:58;;;;;;;;;;;17.70;58.80;;;;;;5041230;28;19920;-64
2021/11/05 08:54:23;;;;;;;;;;;17.80;58.80;;;;;;5047484;28;19913;-64
2021/11/05 08:56:49;;;;;;;;;;;17.80;58.80;;;;;;5038041;28;19917;-64
2021/11/05 08:59:15;;;;;;;;;;;17.90;58.70;;;;;;5045415;28;19943;-61
2021/11/05 09:01:40;;;;;;;;;;;17.90;58.60;;;;;;5033324;28;19917;-65
2021/11/05 09:04:06;;;;;;;;;;;17.90;58.60;;;;;;5037295;28;19917;-64
2021/11/05 09:06:31;;;;;;;;;;;18.00;58.60;;;;;;5030080;28;19913;-62
2021/11/05 09:08:59;;;;;;;;;;;18.00;58.50;;;;;;5044617;28;19931;-66
2021/11/05 09:11:25;;;;;;;;;;;18.00;58.40;;;;;;5040345;28;19921;-66
2021/11/05 09:13:50;;;;;;;;;;;18.10;58.40;;;;;;5040119;28;19967;-64
2021/11/05 09:16:16;;;;;;;;;;;18.10;58.40;;;;;;5032745;28;19913;-65
2021/11/05 09:18:41;;;;;;;;;;;18.10;58.40;;;;;;5030181;28;20320;-63
2021/11/05 09:21:07;;;;;;;;;;;18.10;58.30;;;;;;5034776;28;19913;-65
2021/11/05 09:23:32;;;;;;;;;;;18.20;58.30;;;;;;5009729;28;20330;-64
2021/11/05 09:25:58;;;;;;;;;;;18.20;58.20;;;;;;5046467;28;19963;-64
2021/11/05 09:28:23;;;;;;;;;;;18.20;58.10;;;;;;5035926;28;19939;-63
2021/11/05 09:30:49;;;;;;;;;;;18.20;58.10;;;;;;5044208;28;19912;-63
2021/11/05 09:33:14;;;;;;;;;;;18.20;58.00;;;;;;5019795;28;19927;-64
2021/11/05 09:35:39;;;;;;;;;;;18.30;58.00;;;;;;5036142;28;19917;-65
2021/11/05 09:38:05;;;;;;;;;;;18.30;58.00;;;;;;5026744;28;20342;-63
2021/11/05 09:40:31;;;;;;;;;;;18.30;58.00;;;;;;5039131;28;19913;-65
2021/11/05 09:42:57;;;;;;;;;;;18.30;58.00;;;;;;5027070;28;19967;-65
2021/11/05 09:45:25;;;;;;;;;;;18.30;58.00;;;;;;5027505;28;19928;-64
2021/11/05 09:47:50;;;;;;;;;;;18.30;58.10;;;;;;5044640;28;20298;-64
2021/11/05 09:50:17;;;;;;;;;;;18.30;58.10;;;;;;5045205;28;19913;-65
2021/11/05 09:52:45;;;;;;;;;;;18.30;58.10;;;;;;5017443;28;19917;-64
2021/11/05 09:55:10;;;;;;;;;;;18.30;58.10;;;;;;5034819;28;19916;-64
2021/11/05 09:57:36;;;;;;;;;;;18.20;58.10;;;;;;5039358;28;19917;-64
2021/11/05 10:00:01;;;;;;;;;;;18.20;58.10;;;;;;5038740;28;19913;-64
2021/11/05 10:02:27;;;;;;;;;;;18.20;58.20;;;;;;5034483;28;19913;-63
2021/11/05 10:04:52;;;;;;;;;;;18.20;58.20;;;;;;5026677;28;19921;-63
2021/11/05 10:07:18;;;;;;;;;;;18.20;58.20;;;;;;5034572;28;19921;-66
2021/11/05 10:09:44;;;;;;;;;;;18.20;58.20;;;;;;5034217;28;19921;-64
2021/11/05 10:12:10;;;;;;;;;;;18.20;58.30;;;;;;5038468;28;19917;-63
2021/11/05 10:14:35;;;;;;;;;;;18.20;58.30;;;;;;5045537;28;19962;-65
2021/11/05 10:17:03;;;;;;;;;;;18.20;58.30;;;;;;5036179;28;19913;-62
2021/11/05 10:19:47;;;;;;;;;;;18.20;58.30;;;;;;5038434;28;20137;-65
2021/11/05 10:22:31;;;;;;;;;;;18.10;58.20;;;;;;5044416;28;20020;-64
2021/11/05 10:25:16;;;;;;;;;;;18.10;58.20;;;;;;5035529;28;19917;-64
2021/11/05 10:27:41;;;;;;;;;;;18.10;58.40;;;;;;5036628;28;19921;-64
2021/11/05 10:30:06;;;;;;;;;;;18.10;58.50;;;;;;5035815;28;19936;-64
2021/11/05 10:32:32;;;;;;;;;;;18.10;58.50;;;;;;5029949;28;19913;-64
2021/11/05 10:35:01;;;;;;;;;;;18.10;58.60;;;;;;5028583;28;19920;-64
2021/11/05 10:37:27;;;;;;;;;;;18.10;58.70;;;;;;5039528;28;20009;-64
2021/11/05 10:39:53;;;;;;;;;;;18.10;58.70;;;;;;5029983;28;20001;-64
2021/11/05 10:42:29;;;;;;;;;;;18.10;58.70;;;;;;5033814;28;20008;-64
2021/11/05 10:45:12;;;;;;;;;;;18.10;58.70;;;;;;5038077;28;21132;-64
2021/11/05 10:47:53;;;;;;;;;;;18.00;58.60;;;;;;5044089;28;19913;-65
2021/11/05 10:50:19;;;;;;;;;;;18.00;58.60;;;;;;5032927;28;19918;-64
2021/11/05 10:53:04;;;;;;;;;;;18.00;58.60;;;;;;5047845;28;19913;-64
2021/11/05 10:55:45;;;;;;;;;;;18.00;58.60;;;;;;5025608;28;19924;-63
2021/11/05 10:58:14;;;;;;;;;;;18.00;58.60;;;;;;5029134;28;20333;-64
2021/11/05 11:00:40;;;;;;;;;;;18.00;58.60;;;;;;5033121;28;19979;-64
2021/11/05 11:03:12;;;;;;;;;;;18.00;58.60;;;;;;5033165;28;19913;-64
2021/11/05 11:05:40;;;;;;;;;;;18.00;58.60;;;;;;5044398;28;19917;-64
2021/11/05 11:08:08;;;;;;;;;;;18.00;58.40;;;;;;5039738;28;19972;-64
2021/11/05 11:10:35;;;;;;;;;;;18.00;58.40;;;;;;5039511;28;19917;-64
2021/11/05 11:13:00;;;;;;;;;;;18.00;58.40;;;;;;5026218;28;19917;-64
2021/11/05 11:15:32;;;;;;;;;;;18.00;58.30;;;;;;5031708;28;20402;-65
2021/11/05 11:17:58;;;;;;;;;;;18.00;58.30;;;;;;5023932;28;19970;-64
2021/11/05 11:20:30;;;;;;;;;;;18.00;58.30;;;;;;5034842;28;19925;-64
2021/11/05 11:22:56;;;;;;;;;;;18.00;58.30;;;;;;5020529;28;19920;-64
2021/11/05 11:25:21;;;;;;;;;;;18.00;58.40;;;;;;5026875;28;19929;-66
2021/11/05 11:27:47;;;;;;;;;;;18.00;58.40;;;;;;5040128;28;19928;-64
2021/11/05 11:30:12;;;;;;;;;;;18.00;58.50;;;;;;5019236;28;19920;-64
2021/11/05 11:32:38;;;;;;;;;;;18.00;58.60;;;;;;5033782;28;19913;-64
2021/11/05 11:35:04;;;;;;;;;;;18.00;58.60;;;;;;5010773;28;20309;-63
2021/11/05 11:37:31;;;;;;;;;;;18.00;58.50;;;;;;5039500;28;20434;-65
2021/11/05 11:39:56;;;;;;;;;;;18.00;58.60;;;;;;5009443;28;19960;-63
2021/11/05 11:42:22;;;;;;;;;;;18.00;58.60;;;;;;5036217;28;19912;-62
2021/11/05 11:44:47;;;;;;;;;;;18.00;59.30;;;;;;5026382;28;19925;-65
2021/11/05 11:47:13;;;;;;;;;;;18.00;58.60;;;;;;5043733;28;19920;-62
2021/11/05 11:49:38;;;;;;;;;;;18.00;58.60;;;;;;5023901;28;19914;-63
2021/11/05 11:52:04;;;;;;;;;;;18.00;58.60;;;;;;5034350;28;19996;-63
2021/11/05 11:54:30;;;;;;;;;;;18.00;58.70;;;;;;5027675;28;19913;-64
2021/11/05 11:57:08;;;;;;;;;;;17.90;58.60;;;;;;5033052;28;19920;-65
2021/11/05 11:59:34;;;;;;;;;;;18.00;58.80;;;;;;5030369;28;20296;-63
2021/11/05 12:01:59;;;;;;;;;;;18.00;58.80;;;;;;5036002;28;20203;-65
2021/11/05 12:04:30;;;;;;;;;;;18.00;58.90;;;;;;5043316;28;19917;-64
2021/11/05 12:06:58;;;;;;;;;;;18.00;58.90;;;;;;5029689;28;20357;-61
2021/11/05 12:09:24;;;;;;;;;;;18.00;58.90;;;;;;5017279;28;19921;-65
2021/11/05 12:11:49;;;;;;;;;;;18.00;58.90;;;;;;5026874;28;19920;-65
2021/11/05 12:14:15;;;;;;;;;;;18.00;58.90;;;;;;5033047;28;20009;-65
2021/11/05 12:16:42;;;;;;;;;;;18.00;58.90;;;;;;5042177;28;19921;-64
2021/11/05 12:19:08;;;;;;;;;;;18.00;58.90;;;;;;5033866;28;20282;-64
2021/11/05 12:21:34;;;;;;;;;;;18.00;58.90;;;;;;5043984;28;19921;-63
2021/11/05 12:24:24;;;;;;;;;;;18.00;58.90;;;;;;5042390;28;19913;-63
2021/11/05 12:26:56;;;;;;;;;;;18.00;58.90;;;;;;5037775;28;20378;-63
2021/11/05 12:29:41;;;;;;;;;;;18.00;58.90;;;;;;5038301;28;19967;-64
2021/11/05 12:32:19;;;;;;;;;;;18.00;58.90;;;;;;5031680;28;19923;-65
2021/11/05 12:35:05;;;;;;;;;;;18.00;58.90;;;;;;5028017;28;20375;-64
2021/11/05 12:37:41;;;;;;;;;;;18.00;58.90;;;;;;5039172;28;19939;-64
2021/11/05 12:40:21;;;;;;;;;;;18.00;58.90;;;;;;5038344;28;19916;-64
2021/11/05 12:42:48;;;;;;;;;;;18.00;58.80;;;;;;5039109;28;19920;-64
2021/11/05 12:45:13;;;;;;;;;;;18.00;58.80;;;;;;5037136;28;19963;-65
2021/11/05 12:47:49;;;;;;;;;;;18.00;58.80;;;;;;5029794;28;20322;-65
2021/11/05 12:50:16;;;;;;;;;;;18.00;58.70;;;;;;5042289;28;19913;-65
2021/11/05 12:52:43;;;;;;;;;;;18.00;58.70;;;;;;5027764;28;19924;-64
2021/11/05 12:55:08;;;;;;;;;;;18.00;58.70;;;;;;5020987;28;19944;-64
2021/11/05 12:57:34;;;;;;;;;;;18.00;58.80;;;;;;5041503;28;20287;-64
2021/11/05 12:59:59;;;;;;;;;;;18.00;58.70;;;;;;5042774;28;19913;-65
2021/11/05 13:02:25;;;;;;;;;;;18.00;58.60;;;;;;5035455;28;20035;-65
2021/11/05 13:04:52;;;;;;;;;;;18.00;58.60;;;;;;5038435;28;19927;-64
2021/11/05 13:07:18;;;;;;;;;;;18.00;58.60;;;;;;5031583;28;20038;-64
2021/11/05 13:09:45;;;;;;;;;;;18.00;58.60;;;;;;5036704;28;19996;-64
2021/11/05 13:12:10;;;;;;;;;;;18.00;58.70;;;;;;5026559;28;19913;-64
2021/11/05 13:14:40;;;;;;;;;;;18.00;58.70;;;;;;5035065;28;19959;-65
2021/11/05 13:17:09;;;;;;;;;;;18.00;58.70;;;;;;5044432;28;19934;-64
2021/11/05 13:19:35;;;;;;;;;;;18.00;58.70;;;;;;5037646;28;19913;-63
2021/11/05 13:22:03;;;;;;;;;;;18.00;58.70;;;;;;5046347;28;19924;-65
2021/11/05 13:24:29;;;;;;;;;;;18.00;58.70;;;;;;5038311;28;19924;-64
2021/11/05 13:27:02;;;;;;;;;;;18.00;58.70;;;;;;5040945;28;21514;-64
2021/11/05 13:29:27;;;;;;;;;;;18.00;58.70;;;;;;5002977;28;20354;-59
2021/11/05 13:31:55;;;;;;;;;;;18.00;58.70;;;;;;5046018;28;19917;-65
2021/11/05 13:34:20;;;;;;;;;;;18.00;58.70;;;;;;5033131;28;19959;-65
2021/11/05 13:36:45;;;;;;;;;;;18.00;58.70;;;;;;5046297;28;19913;-64
2021/11/05 13:39:13;;;;;;;;;;;18.00;58.70;;;;;;5031050;28;19920;-64
2021/11/05 13:41:39;;;;;;;;;;;18.00;58.70;;;;;;5034802;28;20387;-64
2021/11/05 13:44:04;;;;;;;;;;;18.00;58.70;;;;;;5042077;28;19913;-63
2021/11/05 13:46:30;;;;;;;;;;;18.00;58.70;;;;;;5039908;28;20346;-63
2021/11/05 13:48:56;;;;;;;;;;;18.00;58.70;;;;;;5021043;28;20012;-64
2021/11/05 13:51:26;;;;;;;;;;;18.00;58.60;;;;;;5045515;28;20006;-64
2021/11/05 13:53:53;;;;;;;;;;;18.00;58.70;;;;;;5043411;28;20380;-64
2021/11/05 13:56:19;;;;;;;;;;;18.00;58.60;;;;;;5043100;28;19940;-60
2021/11/05 13:58:45;;;;;;;;;;;18.00;58.70;;;;;;5025522;28;19925;-64
2021/11/05 14:01:17;;;;;;;;;;;18.00;58.70;;;;;;5020384;28;19913;-64
2021/11/05 14:03:43;;;;;;;;;;;18.00;58.70;;;;;;5039722;28;19917;-65
2021/11/05 14:06:11;;;;;;;;;;;18.00;58.70;;;;;;5011696;28;19924;-64
2021/11/05 14:08:53;;;;;;;;;;;18.00;58.70;;;;;;5034169;28;19913;-64
2021/11/05 14:11:28;;;;;;;;;;;18.00;58.60;;;;;;5038270;28;19921;-64